sensor_id;sensor_type;location;lat;lon;timestamp;pressure;altitude;pressure_sealevel;temperature;humidity
71149;BME280;59072;42.144;25.200;2023-03-23T00:02:30;100097.66;;;10.06;100.00
71149;BME280;59072;42.144;25.200;2023-03-23T00:05:01;100097.28;;;10.03;100.00
71149;BME280;59072;42.144;25.200;2023-03-23T00:07:28;100105.16;;;9.91;100.00
71149;BME280;59072;42.144;25.200;2023-03-23T00:09:54;100099.69;;;10.11;100.00
71149;BME280;59072;42.144;25.200;2023-03-23T00:12:29;100106.75;;;9.92;100.00
71149;BME280;59072;42.144;25.200;2023-03-23T00:15:02;100102.25;;;9.93;100.00
71149;BME280;59072;42.144;25.200;2023-03-23T00:17:28;100102.38;;;9.73;100.00
71149;BME280;59072;42.144;25.200;2023-03-23T00:19:54;100090.03;;;9.85;100.00
71149;BME280;59072;42.144;25.200;2023-03-23T00:22:20;100086.97;;;9.81;100.00
71149;BME280;59072;42.144;25.200;2023-03-23T00:24:47;100088.13;;;9.92;100.00
71149;BME280;59072;42.144;25.200;2023-03-23T00:27:16;100084.19;;;10.01;100.00
71149;BME280;59072;42.144;25.200;2023-03-23T00:29:42;100085.28;;;9.87;100.00
71149;BME280;59072;42.144;25.200;2023-03-23T00:32:10;100086.34;;;9.79;100.00
71149;BME280;59072;42.144;25.200;2023-03-23T00:34:38;100086.31;;;9.86;100.00
71149;BME280;59072;42.144;25.200;2023-03-23T00:37:05;100095.59;;;9.77;100.00
71149;BME280;59072;42.144;25.200;2023-03-23T00:39:31;100092.56;;;9.67;100.00
71149;BME280;59072;42.144;25.200;2023-03-23T00:41:56;100097.03;;;9.73;100.00
71149;BME280;59072;42.144;25.200;2023-03-23T00:44:27;100100.47;;;9.80;100.00
71149;BME280;59072;42.144;25.200;2023-03-23T00:46:54;100087.84;;;9.62;100.00
71149;BME280;59072;42.144;25.200;2023-03-23T00:49:22;100080.34;;;9.52;100.00
71149;BME280;59072;42.144;25.200;2023-03-23T00:51:52;100077.34;;;9.74;100.00
71149;BME280;59072;42.144;25.200;2023-03-23T00:54:19;100087.84;;;9.62;100.00
71149;BME280;59072;42.144;25.200;2023-03-23T00:56:45;100090.69;;;9.74;100.00
71149;BME280;59072;42.144;25.200;2023-03-23T00:59:10;100081.88;;;9.73;100.00
71149;BME280;59072;42.144;25.200;2023-03-23T01:01:36;100080.22;;;9.79;100.00
71149;BME280;59072;42.144;25.200;2023-03-23T01:04:02;100066.31;;;9.70;100.00
71149;BME280;59072;42.144;25.200;2023-03-23T01:06:33;100065.44;;;9.83;100.00
71149;BME280;59072;42.144;25.200;2023-03-23T01:09:00;100080.13;;;9.92;100.00
71149;BME280;59072;42.144;25.200;2023-03-23T01:11:27;100075.13;;;9.71;100.00
71149;BME280;59072;42.144;25.200;2023-03-23T01:13:53;100066.44;;;9.50;100.00
71149;BME280;59072;42.144;25.200;2023-03-23T01:16:18;100067.91;;;9.78;100.00
71149;BME280;59072;42.144;25.200;2023-03-23T01:18:44;100066.22;;;9.90;100.00
71149;BME280;59072;42.144;25.200;2023-03-23T01:21:14;100064.41;;;10.16;100.00
71149;BME280;59072;42.144;25.200;2023-03-23T01:23:41;100065.88;;;10.12;100.00
71149;BME280;59072;42.144;25.200;2023-03-23T01:26:09;100068.25;;;9.88;100.00
71149;BME280;59072;42.144;25.200;2023-03-23T01:28:35;100070.69;;;9.96;100.00
71149;BME280;59072;42.144;25.200;2023-03-23T01:31:03;100072.63;;;9.76;100.00
71149;BME280;59072;42.144;25.200;2023-03-23T01:33:30;100063.03;;;9.75;100.00
71149;BME280;59072;42.144;25.200;2023-03-23T01:35:56;100056.66;;;9.76;100.00
71149;BME280;59072;42.144;25.200;2023-03-23T01:38:22;100061.06;;;9.95;100.00
71149;BME280;59072;42.144;25.200;2023-03-23T01:40:47;100047.31;;;9.67;100.00
71149;BME280;59072;42.144;25.200;2023-03-23T01:43:14;100041.34;;;9.71;100.00
71149;BME280;59072;42.144;25.200;2023-03-23T01:45:40;100054.94;;;9.88;100.00
71149;BME280;59072;42.144;25.200;2023-03-23T01:48:15;100040.88;;;9.81;100.00
71149;BME280;59072;42.144;25.200;2023-03-23T01:51:09;100050.31;;;9.77;100.00
71149;BME280;59072;42.144;25.200;2023-03-23T01:53:40;100057.34;;;9.64;100.00
71149;BME280;59072;42.144;25.200;2023-03-23T01:56:09;100056.50;;;9.71;100.00
71149;BME280;59072;42.144;25.200;2023-03-23T01:58:37;100052.59;;;9.73;100.00
71149;BME280;59072;42.144;25.200;2023-03-23T02:01:09;100044.00;;;9.71;100.00
71149;BME280;59072;42.144;25.200;2023-03-23T02:03:43;100056.69;;;10.08;100.00
71149;BME280;59072;42.144;25.200;2023-03-23T02:06:10;100062.47;;;10.30;100.00
71149;BME280;59072;42.144;25.200;2023-03-23T02:08:36;100073.75;;;10.25;100.00
71149;BME280;59072;42.144;25.200;2023-03-23T02:11:33;100080.75;;;10.19;100.00
71149;BME280;59072;42.144;25.200;2023-03-23T02:13:59;100084.69;;;10.17;100.00
71149;BME280;59072;42.144;25.200;2023-03-23T02:16:45;100089.50;;;10.01;100.00
71149;BME280;59072;42.144;25.200;2023-03-23T02:19:27;100088.38;;;9.84;100.00
71149;BME280;59072;42.144;25.200;2023-03-23T02:24:34;100103.09;;;9.93;100.00
71149;BME280;59072;42.144;25.200;2023-03-23T02:27:08;100085.03;;;9.95;100.00
71149;BME280;59072;42.144;25.200;2023-03-23T02:35:34;100098.56;;;9.94;100.00
71149;BME280;59072;42.144;25.200;2023-03-23T02:38:04;100092.09;;;9.76;100.00
71149;BME280;59072;42.144;25.200;2023-03-23T02:40:38;100101.97;;;10.08;100.00
71149;BME280;59072;42.144;25.200;2023-03-23T02:43:07;100101.75;;;10.09;100.00
71149;BME280;59072;42.144;25.200;2023-03-23T02:45:34;100101.72;;;10.16;100.00
71149;BME280;59072;42.144;25.200;2023-03-23T02:48:02;100087.34;;;10.17;100.00
71149;BME280;59072;42.144;25.200;2023-03-23T02:50:28;100107.00;;;10.22;100.00
71149;BME280;59072;42.144;25.200;2023-03-23T02:52:56;100075.50;;;9.81;100.00
71149;BME280;59072;42.144;25.200;2023-03-23T02:55:23;100107.63;;;9.86;100.00
71149;BME280;59072;42.144;25.200;2023-03-23T02:57:52;100089.25;;;9.71;100.00
71149;BME280;59072;42.144;25.200;2023-03-23T03:00:18;100109.63;;;9.97;100.00
71149;BME280;59072;42.144;25.200;2023-03-23T03:02:54;100101.41;;;9.99;100.00
71149;BME280;59072;42.144;25.200;2023-03-23T03:11:11;100108.63;;;10.30;100.00
71149;BME280;59072;42.144;25.200;2023-03-23T03:13:55;100096.19;;;10.11;100.00
71149;BME280;59072;42.144;25.200;2023-03-23T03:16:30;100091.84;;;9.84;100.00
71149;BME280;59072;42.144;25.200;2023-03-23T03:21:36;100095.94;;;9.87;100.00
71149;BME280;59072;42.144;25.200;2023-03-23T03:24:03;100113.75;;;9.86;100.00
71149;BME280;59072;42.144;25.200;2023-03-23T03:26:33;100117.41;;;9.92;100.00
71149;BME280;59072;42.144;25.200;2023-03-23T03:29:00;100113.50;;;10.01;100.00
71149;BME280;59072;42.144;25.200;2023-03-23T03:31:29;100114.09;;;10.03;100.00
71149;BME280;59072;42.144;25.200;2023-03-23T03:33:56;100121.72;;;9.93;100.00
71149;BME280;59072;42.144;25.200;2023-03-23T03:36:25;100107.41;;;9.88;100.00
71149;BME280;59072;42.144;25.200;2023-03-23T03:38:52;100127.66;;;9.95;100.00
71149;BME280;59072;42.144;25.200;2023-03-23T03:41:19;100123.69;;;9.73;100.00
71149;BME280;59072;42.144;25.200;2023-03-23T03:43:45;100125.25;;;9.80;100.00
71149;BME280;59072;42.144;25.200;2023-03-23T03:46:10;100130.94;;;9.97;100.00
71149;BME280;59072;42.144;25.200;2023-03-23T03:48:36;100125.78;;;10.02;100.00
71149;BME280;59072;42.144;25.200;2023-03-23T03:51:02;100129.84;;;10.05;100.00
71149;BME280;59072;42.144;25.200;2023-03-23T03:53:28;100130.50;;;10.00;100.00
71149;BME280;59072;42.144;25.200;2023-03-23T03:55:54;100125.41;;;9.92;100.00
71149;BME280;59072;42.144;25.200;2023-03-23T03:58:25;100136.28;;;9.91;100.00
71149;BME280;59072;42.144;25.200;2023-03-23T04:00:57;100124.88;;;9.77;100.00
71149;BME280;59072;42.144;25.200;2023-03-23T04:03:23;100129.38;;;9.83;100.00
71149;BME280;59072;42.144;25.200;2023-03-23T04:05:49;100130.22;;;9.70;100.00
71149;BME280;59072;42.144;25.200;2023-03-23T04:08:14;100123.59;;;9.86;100.00
71149;BME280;59072;42.144;25.200;2023-03-23T04:10:39;100130.34;;;9.95;100.00
71149;BME280;59072;42.144;25.200;2023-03-23T04:13:05;100126.34;;;9.73;100.00
71149;BME280;59072;42.144;25.200;2023-03-23T04:15:31;100125.69;;;9.77;100.00
71149;BME280;59072;42.144;25.200;2023-03-23T04:17:56;100131.44;;;9.74;100.00
71149;BME280;59072;42.144;25.200;2023-03-23T04:20:23;100120.38;;;9.77;100.00
71149;BME280;59072;42.144;25.200;2023-03-23T04:22:50;100132.63;;;9.85;100.00
71149;BME280;59072;42.144;25.200;2023-03-23T04:25:18;100131.84;;;9.78;100.00
71149;BME280;59072;42.144;25.200;2023-03-23T04:27:46;100134.69;;;9.83;100.00
71149;BME280;59072;42.144;25.200;2023-03-23T04:30:22;100129.72;;;9.93;100.00
71149;BME280;59072;42.144;25.200;2023-03-23T04:32:49;100128.16;;;9.79;100.00
71149;BME280;59072;42.144;25.200;2023-03-23T04:35:16;100124.88;;;9.77;100.00
71149;BME280;59072;42.144;25.200;2023-03-23T04:37:42;100130.59;;;9.80;100.00
71149;BME280;59072;42.144;25.200;2023-03-23T04:40:08;100125.25;;;9.80;100.00
71149;BME280;59072;42.144;25.200;2023-03-23T04:42:38;100141.00;;;9.95;100.00
71149;BME280;59072;42.144;25.200;2023-03-23T04:45:06;100113.00;;;9.79;100.00
71149;BME280;59072;42.144;25.200;2023-03-23T04:47:34;100118.72;;;9.83;100.00
71149;BME280;59072;42.144;25.200;2023-03-23T04:50:06;100148.38;;;9.93;100.00
71149;BME280;59072;42.144;25.200;2023-03-23T04:52:33;100143.66;;;9.89;100.00
71149;BME280;59072;42.144;25.200;2023-03-23T04:54:59;100149.34;;;10.05;100.00
71149;BME280;59072;42.144;25.200;2023-03-23T04:57:24;100148.94;;;10.02;100.00
71149;BME280;59072;42.144;25.200;2023-03-23T04:59:53;100146.97;;;9.84;100.00
71149;BME280;59072;42.144;25.200;2023-03-23T05:02:18;100150.59;;;9.96;100.00
71149;BME280;59072;42.144;25.200;2023-03-23T05:04:44;100164.72;;;10.03;100.00
71149;BME280;59072;42.144;25.200;2023-03-23T05:07:10;100149.25;;;10.19;100.00
71149;BME280;59072;42.144;25.200;2023-03-23T05:09:36;100160.75;;;10.13;100.00
71149;BME280;59072;42.144;25.200;2023-03-23T05:12:09;100164.78;;;10.29;100.00
71149;BME280;59072;42.144;25.200;2023-03-23T05:14:35;100175.03;;;10.25;100.00
71149;BME280;59072;42.144;25.200;2023-03-23T05:17:01;100173.47;;;10.11;100.00
71149;BME280;59072;42.144;25.200;2023-03-23T05:19:27;100184.44;;;10.27;100.00
71149;BME280;59072;42.144;25.200;2023-03-23T05:21:54;100180.63;;;10.17;100.00
71149;BME280;59072;42.144;25.200;2023-03-23T05:24:21;100179.53;;;10.31;100.00
71149;BME280;59072;42.144;25.200;2023-03-23T05:26:47;100187.84;;;10.48;100.00
71149;BME280;59072;42.144;25.200;2023-03-23T05:29:14;100185.56;;;10.52;100.00
71149;BME280;59072;42.144;25.200;2023-03-23T05:31:39;100198.16;;;10.38;100.00
71149;BME280;59072;42.144;25.200;2023-03-23T05:34:05;100195.97;;;10.60;100.00
71149;BME280;59072;42.144;25.200;2023-03-23T05:36:30;100189.22;;;10.57;100.00
71149;BME280;59072;42.144;25.200;2023-03-23T05:38:56;100193.75;;;10.57;100.00
71149;BME280;59072;42.144;25.200;2023-03-23T05:41:22;100193.19;;;10.48;100.00
71149;BME280;59072;42.144;25.200;2023-03-23T05:43:48;100193.41;;;10.47;100.00
71149;BME280;59072;42.144;25.200;2023-03-23T05:46:13;100198.91;;;10.52;100.00
71149;BME280;59072;42.144;25.200;2023-03-23T05:48:40;100200.91;;;10.63;100.00
71149;BME280;59072;42.144;25.200;2023-03-23T05:51:05;100200.91;;;10.63;100.00
71149;BME280;59072;42.144;25.200;2023-03-23T05:53:31;100203.22;;;10.53;100.00
71149;BME280;59072;42.144;25.200;2023-03-23T05:56:00;100217.56;;;10.52;100.00
71149;BME280;59072;42.144;25.200;2023-03-23T05:58:26;100213.22;;;10.19;100.00
71149;BME280;59072;42.144;25.200;2023-03-23T06:00:51;100206.34;;;9.98;100.00
71149;BME280;59072;42.144;25.200;2023-03-23T06:03:17;100217.69;;;10.25;100.00
71149;BME280;59072;42.144;25.200;2023-03-23T06:05:45;100218.28;;;10.34;100.00
71149;BME280;59072;42.144;25.200;2023-03-23T06:08:10;100214.75;;;9.95;100.00
71149;BME280;59072;42.144;25.200;2023-03-23T06:10:36;100207.94;;;10.05;100.00
71149;BME280;59072;42.144;25.200;2023-03-23T06:13:03;100216.88;;;10.31;100.00
71149;BME280;59072;42.144;25.200;2023-03-23T06:15:29;100204.25;;;10.06;100.00
71149;BME280;59072;42.144;25.200;2023-03-23T06:18:00;100215.09;;;10.12;100.00
71149;BME280;59072;42.144;25.200;2023-03-23T06:20:26;100204.56;;;9.78;100.00
71149;BME280;59072;42.144;25.200;2023-03-23T06:22:51;100209.66;;;9.93;100.00
71149;BME280;59072;42.144;25.200;2023-03-23T06:25:18;100215.47;;;10.15;100.00
71149;BME280;59072;42.144;25.200;2023-03-23T06:27:43;100208.88;;;10.31;100.00
71149;BME280;59072;42.144;25.200;2023-03-23T06:30:11;100223.75;;;10.45;100.00
71149;BME280;59072;42.144;25.200;2023-03-23T06:32:37;100227.63;;;10.50;100.00
71149;BME280;59072;42.144;25.200;2023-03-23T06:35:03;100225.75;;;10.57;100.00
71149;BME280;59072;42.144;25.200;2023-03-23T06:37:29;100225.66;;;10.38;100.00
71149;BME280;59072;42.144;25.200;2023-03-23T06:39:55;100227.72;;;10.68;100.00
71149;BME280;59072;42.144;25.200;2023-03-23T06:42:22;100235.00;;;10.54;100.00
71149;BME280;59072;42.144;25.200;2023-03-23T06:44:50;100227.31;;;10.71;100.00
71149;BME280;59072;42.144;25.200;2023-03-23T06:47:15;100240.94;;;10.56;100.00
71149;BME280;59072;42.144;25.200;2023-03-23T06:49:41;100239.78;;;10.77;100.00
71149;BME280;59072;42.144;25.200;2023-03-23T06:52:06;100238.06;;;10.90;100.00
71149;BME280;59072;42.144;25.200;2023-03-23T06:54:32;100230.00;;;10.96;100.00
71149;BME280;59072;42.144;25.200;2023-03-23T06:56:57;100235.25;;;11.03;100.00
71149;BME280;59072;42.144;25.200;2023-03-23T06:59:22;100229.28;;;11.08;100.00
71149;BME280;59072;42.144;25.200;2023-03-23T07:01:48;100240.44;;;11.23;100.00
71149;BME280;59072;42.144;25.200;2023-03-23T07:04:14;100243.19;;;11.16;100.00
71149;BME280;59072;42.144;25.200;2023-03-23T07:06:39;100239.63;;;11.22;100.00
71149;BME280;59072;42.144;25.200;2023-03-23T07:09:05;100237.97;;;11.21;100.00
71149;BME280;59072;42.144;25.200;2023-03-23T07:11:31;100242.13;;;11.42;100.00
71149;BME280;59072;42.144;25.200;2023-03-23T07:13:57;100236.19;;;11.40;100.00
71149;BME280;59072;42.144;25.200;2023-03-23T07:16:22;100245.91;;;11.53;100.00
71149;BME280;59072;42.144;25.200;2023-03-23T07:18:48;100235.81;;;11.37;100.00
71149;BME280;59072;42.144;25.200;2023-03-23T07:21:13;100239.91;;;11.58;100.00
71149;BME280;59072;42.144;25.200;2023-03-23T07:23:39;100252.25;;;11.77;100.00
71149;BME280;59072;42.144;25.200;2023-03-23T07:26:05;100249.81;;;11.76;100.00
71149;BME280;59072;42.144;25.200;2023-03-23T07:28:31;100256.75;;;11.77;100.00
71149;BME280;59072;42.144;25.200;2023-03-23T07:30:57;100252.19;;;11.84;100.00
71149;BME280;59072;42.144;25.200;2023-03-23T07:33:22;100259.03;;;11.98;100.00
71149;BME280;59072;42.144;25.200;2023-03-23T07:35:48;100257.38;;;12.34;100.00
71149;BME280;59072;42.144;25.200;2023-03-23T07:38:14;100270.59;;;12.29;100.00
71149;BME280;59072;42.144;25.200;2023-03-23T07:40:40;100261.00;;;12.21;100.00
71149;BME280;59072;42.144;25.200;2023-03-23T07:43:06;100261.44;;;12.37;100.00
71149;BME280;59072;42.144;25.200;2023-03-23T07:45:32;100270.94;;;12.51;100.00
71149;BME280;59072;42.144;25.200;2023-03-23T07:47:58;100272.13;;;12.55;100.00
71149;BME280;59072;42.144;25.200;2023-03-23T07:50:24;100266.06;;;12.60;100.00
71149;BME280;59072;42.144;25.200;2023-03-23T07:52:54;100265.38;;;12.53;100.00
71149;BME280;59072;42.144;25.200;2023-03-23T07:55:20;100264.13;;;12.37;100.00
71149;BME280;59072;42.144;25.200;2023-03-23T07:57:47;100258.72;;;12.55;100.00
71149;BME280;59072;42.144;25.200;2023-03-23T08:00:15;100264.66;;;12.88;100.00
71149;BME280;59072;42.144;25.200;2023-03-23T08:02:43;100269.81;;;13.13;99.35
71149;BME280;59072;42.144;25.200;2023-03-23T08:05:09;100268.28;;;13.05;97.79
71149;BME280;59072;42.144;25.200;2023-03-23T08:07:35;100276.22;;;13.00;98.43
71149;BME280;59072;42.144;25.200;2023-03-23T08:10:02;100275.88;;;13.08;96.37
71149;BME280;59072;42.144;25.200;2023-03-23T08:12:27;100275.75;;;13.03;99.00
71149;BME280;59072;42.144;25.200;2023-03-23T08:14:53;100282.47;;;13.05;100.00
71149;BME280;59072;42.144;25.200;2023-03-23T08:17:19;100281.94;;;13.15;100.00
71149;BME280;59072;42.144;25.200;2023-03-23T08:19:45;100279.63;;;13.19;100.00
71149;BME280;59072;42.144;25.200;2023-03-23T08:22:11;100270.94;;;12.81;100.00
71149;BME280;59072;42.144;25.200;2023-03-23T08:24:36;100282.22;;;12.83;100.00
71149;BME280;59072;42.144;25.200;2023-03-23T08:27:02;100283.16;;;12.89;98.95
71149;BME280;59072;42.144;25.200;2023-03-23T08:29:27;100282.56;;;12.87;96.90
71149;BME280;59072;42.144;25.200;2023-03-23T08:31:53;100281.31;;;13.01;98.78
71149;BME280;59072;42.144;25.200;2023-03-23T08:34:20;100282.06;;;12.78;98.61
71149;BME280;59072;42.144;25.200;2023-03-23T08:36:46;100279.25;;;13.15;97.90
71149;BME280;59072;42.144;25.200;2023-03-23T08:39:12;100279.50;;;13.25;97.61
71149;BME280;59072;42.144;25.200;2023-03-23T08:41:40;100276.06;;;13.37;97.09
71149;BME280;59072;42.144;25.200;2023-03-23T08:44:05;100284.41;;;13.29;95.02
71149;BME280;59072;42.144;25.200;2023-03-23T08:46:31;100274.63;;;13.22;94.41
71149;BME280;59072;42.144;25.200;2023-03-23T08:48:56;100272.69;;;13.41;94.30
71149;BME280;59072;42.144;25.200;2023-03-23T08:51:21;100291.91;;;13.74;95.31
71149;BME280;59072;42.144;25.200;2023-03-23T08:53:47;100285.13;;;13.83;92.94
71149;BME280;59072;42.144;25.200;2023-03-23T08:56:12;100280.47;;;13.90;93.24
71149;BME280;59072;42.144;25.200;2023-03-23T08:58:39;100277.19;;;13.88;96.60
71149;BME280;59072;42.144;25.200;2023-03-23T09:01:06;100279.72;;;14.06;94.69
71149;BME280;59072;42.144;25.200;2023-03-23T09:03:33;100284.56;;;14.33;93.09
71149;BME280;59072;42.144;25.200;2023-03-23T09:06:01;100286.13;;;14.58;88.74
71149;BME280;59072;42.144;25.200;2023-03-23T09:08:27;100284.94;;;14.54;89.08
71149;BME280;59072;42.144;25.200;2023-03-23T09:11:04;100279.00;;;14.52;91.87
71149;BME280;59072;42.144;25.200;2023-03-23T09:13:30;100286.97;;;15.04;87.18
71149;BME280;59072;42.144;25.200;2023-03-23T09:15:56;100275.03;;;15.51;84.17
71149;BME280;59072;42.144;25.200;2023-03-23T09:18:23;100275.22;;;15.78;88.32
71149;BME280;59072;42.144;25.200;2023-03-23T09:20:54;100283.56;;;15.98;88.94
71149;BME280;59072;42.144;25.200;2023-03-23T09:23:19;100277.03;;;15.94;85.69
71149;BME280;59072;42.144;25.200;2023-03-23T09:25:46;100275.94;;;16.61;77.79
71149;BME280;59072;42.144;25.200;2023-03-23T09:28:12;100273.38;;;16.50;83.55
71149;BME280;59072;42.144;25.200;2023-03-23T09:30:39;100276.19;;;16.60;78.46
71149;BME280;59072;42.144;25.200;2023-03-23T09:33:06;100281.06;;;16.63;72.95
71149;BME280;59072;42.144;25.200;2023-03-23T09:35:34;100277.22;;;16.32;72.63
71149;BME280;59072;42.144;25.200;2023-03-23T09:38:01;100274.41;;;16.43;67.72
71149;BME280;59072;42.144;25.200;2023-03-23T09:51:11;100260.91;;;17.67;70.20
71149;BME280;59072;42.144;25.200;2023-03-23T09:53:43;100262.50;;;17.26;68.25
71149;BME280;59072;42.144;25.200;2023-03-23T09:56:13;100251.31;;;17.39;66.57
71149;BME280;59072;42.144;25.200;2023-03-23T09:58:58;100244.97;;;17.23;72.45
71149;BME280;59072;42.144;25.200;2023-03-23T10:01:35;100238.88;;;17.38;64.83
71149;BME280;59072;42.144;25.200;2023-03-23T10:04:10;100255.94;;;17.49;68.92
71149;BME280;59072;42.144;25.200;2023-03-23T10:06:37;100256.28;;;17.20;67.98
71149;BME280;59072;42.144;25.200;2023-03-23T10:09:04;100255.91;;;17.06;68.94
71149;BME280;59072;42.144;25.200;2023-03-23T10:16:40;100262.19;;;16.63;69.20
71149;BME280;59072;42.144;25.200;2023-03-23T10:21:41;100251.84;;;16.50;68.68
71149;BME280;59072;42.144;25.200;2023-03-23T10:24:14;100233.38;;;15.87;72.23
71149;BME280;59072;42.144;25.200;2023-03-23T10:27:06;100252.75;;;15.89;73.36
71149;BME280;59072;42.144;25.200;2023-03-23T10:29:59;100250.34;;;15.71;73.10
71149;BME280;59072;42.144;25.200;2023-03-23T10:35:07;100257.22;;;15.44;74.06
71149;BME280;59072;42.144;25.200;2023-03-23T10:37:38;100257.75;;;15.24;76.87
71149;BME280;59072;42.144;25.200;2023-03-23T10:40:14;100245.13;;;15.08;80.06
71149;BME280;59072;42.144;25.200;2023-03-23T10:42:40;100254.81;;;14.92;80.52
71149;BME280;59072;42.144;25.200;2023-03-23T10:45:23;100236.56;;;14.77;81.48
71149;BME280;59072;42.144;25.200;2023-03-23T10:48:28;100254.75;;;14.58;86.25
71149;BME280;59072;42.144;25.200;2023-03-23T10:50:58;100234.06;;;14.30;84.38
71149;BME280;59072;42.144;25.200;2023-03-23T10:53:34;100241.09;;;14.19;86.61
71149;BME280;59072;42.144;25.200;2023-03-23T10:56:01;100247.06;;;14.10;86.55
71149;BME280;59072;42.144;25.200;2023-03-23T10:58:33;100248.75;;;13.87;85.60
71149;BME280;59072;42.144;25.200;2023-03-23T11:01:01;100248.88;;;13.92;86.58
71149;BME280;59072;42.144;25.200;2023-03-23T11:03:48;100253.44;;;13.80;88.82
71149;BME280;59072;42.144;25.200;2023-03-23T11:06:23;100243.88;;;13.84;85.96
71149;BME280;59072;42.144;25.200;2023-03-23T11:08:58;100254.81;;;13.94;85.92
71149;BME280;59072;42.144;25.200;2023-03-23T11:11:36;100208.69;;;13.80;87.92
71149;BME280;59072;42.144;25.200;2023-03-23T11:16:59;100244.28;;;14.04;86.79
71149;BME280;59072;42.144;25.200;2023-03-23T11:19:28;100239.03;;;14.10;85.92
71149;BME280;59072;42.144;25.200;2023-03-23T11:24:32;100230.50;;;14.13;84.29
71149;BME280;59072;42.144;25.200;2023-03-23T11:26:59;100231.91;;;14.44;84.06
71149;BME280;59072;42.144;25.200;2023-03-23T11:29:27;100222.31;;;14.48;86.28
71149;BME280;59072;42.144;25.200;2023-03-23T11:32:05;100217.03;;;14.82;85.39
71149;BME280;59072;42.144;25.200;2023-03-23T11:34:44;100231.66;;;14.74;85.06
71149;BME280;59072;42.144;25.200;2023-03-23T11:37:28;100222.91;;;14.96;86.40
71149;BME280;59072;42.144;25.200;2023-03-23T11:42:42;100220.44;;;15.28;82.58
71149;BME280;59072;42.144;25.200;2023-03-23T11:45:18;100197.19;;;15.00;81.44
71149;BME280;59072;42.144;25.200;2023-03-23T11:47:55;100208.41;;;15.53;80.97
71149;BME280;59072;42.144;25.200;2023-03-23T11:50:34;100208.41;;;15.31;80.00
71149;BME280;59072;42.144;25.200;2023-03-23T11:53:11;100204.50;;;15.21;81.01
71149;BME280;59072;42.144;25.200;2023-03-23T11:58:15;100186.06;;;15.30;80.77
71149;BME280;59072;42.144;25.200;2023-03-23T12:06:07;100180.69;;;15.47;79.94
71149;BME280;59072;42.144;25.200;2023-03-23T12:11:52;100205.91;;;15.85;77.59
71149;BME280;59072;42.144;25.200;2023-03-23T12:14:59;100204.09;;;16.13;73.89
71149;BME280;59072;42.144;25.200;2023-03-23T12:17:51;100182.84;;;15.89;74.41
71149;BME280;59072;42.144;25.200;2023-03-23T12:20:36;100195.69;;;16.31;72.22
71149;BME280;59072;42.144;25.200;2023-03-23T12:31:14;100205.81;;;16.24;73.86
71149;BME280;59072;42.144;25.200;2023-03-23T12:47:50;100180.31;;;16.59;71.40
71149;BME280;59072;42.144;25.200;2023-03-23T12:50:28;100177.44;;;16.65;72.44
71149;BME280;59072;42.144;25.200;2023-03-23T12:58:06;100193.09;;;15.92;75.85
71149;BME280;59072;42.144;25.200;2023-03-23T13:01:15;100179.50;;;15.60;74.06
71149;BME280;59072;42.144;25.200;2023-03-23T13:09:09;100172.78;;;15.79;74.85
71149;BME280;59072;42.144;25.200;2023-03-23T13:11:38;100178.84;;;15.53;75.54
71149;BME280;59072;42.144;25.200;2023-03-23T13:14:21;100178.00;;;15.91;74.63
71149;BME280;59072;42.144;25.200;2023-03-23T13:22:54;100177.97;;;15.69;74.77
71149;BME280;59072;42.144;25.200;2023-03-23T13:28:22;100180.94;;;15.67;75.39
71149;BME280;59072;42.144;25.200;2023-03-23T13:31:32;100179.06;;;15.68;76.35
71149;BME280;59072;42.144;25.200;2023-03-23T13:34:22;100176.84;;;15.82;72.59
71149;BME280;59072;42.144;25.200;2023-03-23T13:36:57;100171.06;;;15.51;74.41
71149;BME280;59072;42.144;25.200;2023-03-23T13:42:16;100165.03;;;15.44;76.76
71149;BME280;59072;42.144;25.200;2023-03-23T13:54:45;100163.81;;;14.79;76.98
71149;BME280;59072;42.144;25.200;2023-03-23T14:10:49;100179.47;;;15.77;72.74
71149;BME280;59072;42.144;25.200;2023-03-23T14:13:21;100176.56;;;15.61;71.73
71149;BME280;59072;42.144;25.200;2023-03-23T14:16:03;100180.81;;;15.57;73.89
71149;BME280;59072;42.144;25.200;2023-03-23T14:18:39;100161.31;;;15.45;73.22
71149;BME280;59072;42.144;25.200;2023-03-23T14:21:14;100148.09;;;15.43;75.54
71149;BME280;59072;42.144;25.200;2023-03-23T14:23:40;100174.50;;;15.30;75.04
71149;BME280;59072;42.144;25.200;2023-03-23T14:26:16;100130.91;;;15.05;75.75
71149;BME280;59072;42.144;25.200;2023-03-23T14:28:44;100166.25;;;15.14;74.98
71149;BME280;59072;42.144;25.200;2023-03-23T14:33:41;100168.38;;;15.12;77.25
71149;BME280;59072;42.144;25.200;2023-03-23T14:36:07;100174.88;;;14.82;76.59
71149;BME280;59072;42.144;25.200;2023-03-23T14:38:33;100172.28;;;14.71;79.25
71149;BME280;59072;42.144;25.200;2023-03-23T14:41:03;100172.44;;;14.64;79.04
71149;BME280;59072;42.144;25.200;2023-03-23T14:43:30;100177.66;;;14.71;78.56
71149;BME280;59072;42.144;25.200;2023-03-23T14:45:58;100175.81;;;14.71;78.28
71149;BME280;59072;42.144;25.200;2023-03-23T14:48:25;100179.94;;;14.79;78.37
71149;BME280;59072;42.144;25.200;2023-03-23T14:50:57;100161.88;;;14.74;78.06
71149;BME280;59072;42.144;25.200;2023-03-23T14:53:49;100166.50;;;14.62;77.01
71149;BME280;59072;42.144;25.200;2023-03-23T14:56:19;100161.06;;;14.57;76.55
71149;BME280;59072;42.144;25.200;2023-03-23T14:58:47;100178.56;;;14.31;78.07